createdAt,value
2017-09-03T00:00:18.310Z,99.90
2017-09-03T00:02:46.826Z,99.90
2017-09-03T00:05:15.382Z,99.90
2017-09-03T00:07:43.902Z,99.90
2017-09-03T00:10:12.413Z,99.90
2017-09-03T00:12:40.886Z,99.90
2017-09-03T00:15:09.382Z,99.80
2017-09-03T00:17:37.962Z,99.80
2017-09-03T00:20:06.471Z,99.90
2017-09-03T00:22:34.925Z,99.70
2017-09-03T00:25:03.434Z,99.30
2017-09-03T00:27:31.898Z,99.90
2017-09-03T00:30:00.409Z,99.90
2017-09-03T00:32:28.883Z,99.70
2017-09-03T00:34:57.382Z,99.60
2017-09-03T00:37:25.903Z,99.10
2017-09-03T00:39:54.407Z,98.60
2017-09-03T00:42:22.924Z,99.60
2017-09-03T00:44:51.466Z,98.80
2017-09-03T00:47:19.971Z,99.30
2017-09-03T00:49:48.451Z,99.90
2017-09-03T00:52:16.954Z,99.80
2017-09-03T00:54:45.521Z,99.90
2017-09-03T00:57:14.030Z,99.90
2017-09-03T00:59:42.746Z,99.90
2017-09-03T01:02:12.300Z,99.90
2017-09-03T01:04:40.622Z,99.90
2017-09-03T01:07:08.456Z,99.90
2017-09-03T01:09:37.011Z,99.90
2017-09-03T01:12:05.487Z,99.90
2017-09-03T01:14:34.008Z,99.90
2017-09-03T01:17:02.194Z,99.90
2017-09-03T01:19:30.735Z,99.90
2017-09-03T01:21:59.231Z,99.90
2017-09-03T01:24:27.795Z,99.90
2017-09-03T01:26:56.307Z,99.90
2017-09-03T01:29:24.821Z,99.90
2017-09-03T01:31:53.386Z,99.90
2017-09-03T01:34:21.975Z,99.90
2017-09-03T01:36:50.478Z,99.90
2017-09-03T01:39:19.032Z,99.90
2017-09-03T01:41:47.589Z,99.90
2017-09-03T01:44:16.131Z,99.90
2017-09-03T01:46:44.663Z,99.20
2017-09-03T01:49:13.170Z,98.70
2017-09-03T01:51:41.689Z,99.60
2017-09-03T01:54:10.198Z,99.60
2017-09-03T01:56:38.724Z,99.70
2017-09-03T01:59:07.227Z,99.70
2017-09-03T02:01:35.755Z,99.60
2017-09-03T02:04:04.250Z,99.80
2017-09-03T02:06:32.708Z,99.30
2017-09-03T02:09:01.238Z,99.20
2017-09-03T02:11:29.756Z,99.90
2017-09-03T02:13:58.266Z,99.20
2017-09-03T02:16:26.812Z,98.60
2017-09-03T02:18:55.333Z,98.00
2017-09-03T02:21:23.850Z,98.80
2017-09-03T02:23:52.378Z,98.80
2017-09-03T02:26:20.876Z,99.60
2017-09-03T02:28:49.439Z,99.90
2017-09-03T02:31:17.959Z,99.90
2017-09-03T02:33:46.484Z,99.90
2017-09-03T02:36:15.071Z,99.60
2017-09-03T02:38:44.498Z,99.20
2017-09-03T02:41:13.031Z,98.00
2017-09-03T02:43:41.560Z,98.10
2017-09-03T02:46:10.051Z,98.70
2017-09-03T02:48:38.599Z,98.40
2017-09-03T02:51:06.927Z,98.60
2017-09-03T02:53:35.417Z,98.40
2017-09-03T02:56:03.994Z,99.80
2017-09-03T02:58:32.510Z,99.90
2017-09-03T03:01:01.068Z,99.90
2017-09-03T03:03:29.612Z,99.90
2017-09-03T03:05:58.145Z,99.90
2017-09-03T03:08:26.667Z,99.90
2017-09-03T03:10:55.208Z,99.90
2017-09-03T03:13:23.731Z,99.90
2017-09-03T03:15:52.260Z,99.90
2017-09-03T03:18:20.785Z,99.90
2017-09-03T03:20:49.316Z,99.90
2017-09-03T03:23:17.804Z,99.90
2017-09-03T03:25:46.346Z,99.90
2017-09-03T03:28:14.893Z,99.90
2017-09-03T03:30:43.388Z,99.90
2017-09-03T03:33:11.959Z,99.90
2017-09-03T03:35:40.704Z,99.90
2017-09-03T03:38:09.251Z,99.90
2017-09-03T03:40:37.824Z,99.90
2017-09-03T03:43:06.303Z,99.90
2017-09-03T03:45:34.767Z,99.90
2017-09-03T03:48:03.272Z,99.90
2017-09-03T03:50:31.807Z,99.90
2017-09-03T03:53:00.354Z,99.90
2017-09-03T03:55:28.891Z,99.90
2017-09-03T03:57:57.406Z,99.90
2017-09-03T04:00:26.169Z,99.90
2017-09-03T04:02:54.865Z,99.90
2017-09-03T04:05:23.363Z,99.90
2017-09-03T04:07:51.912Z,99.90
2017-09-03T04:10:20.413Z,99.90
2017-09-03T04:12:48.952Z,99.90
2017-09-03T04:15:17.505Z,99.90
2017-09-03T04:17:46.071Z,99.90
2017-09-03T04:20:14.572Z,99.90
2017-09-03T04:22:43.128Z,99.90
2017-09-03T04:25:11.635Z,99.90
2017-09-03T04:27:40.241Z,99.90
2017-09-03T04:30:08.777Z,99.90
2017-09-03T04:32:37.305Z,99.90
2017-09-03T04:35:05.828Z,99.90
2017-09-03T04:37:34.383Z,99.90
2017-09-03T04:40:02.891Z,99.90
2017-09-03T04:42:31.434Z,99.90
2017-09-03T04:44:59.976Z,99.90
2017-09-03T04:47:28.314Z,99.90
2017-09-03T04:49:56.839Z,99.90
2017-09-03T04:52:25.511Z,99.90
2017-09-03T04:54:54.091Z,99.90
2017-09-03T04:57:22.690Z,99.90
2017-09-03T04:59:51.269Z,99.90
2017-09-03T05:02:19.803Z,99.90
2017-09-03T05:04:48.330Z,99.90
2017-09-03T05:07:16.839Z,99.90
2017-09-03T05:09:45.413Z,99.90
2017-09-03T05:12:13.949Z,99.90
2017-09-03T05:14:43.199Z,99.90
2017-09-03T05:17:11.749Z,99.90
2017-09-03T05:19:40.308Z,99.90
2017-09-03T05:22:08.834Z,99.90
2017-09-03T05:24:37.347Z,99.90
2017-09-03T05:27:06.040Z,99.90
2017-09-03T05:29:34.588Z,99.90
2017-09-03T05:32:03.074Z,99.90
2017-09-03T05:34:31.598Z,99.90
2017-09-03T05:37:00.162Z,99.90
2017-09-03T05:39:28.666Z,99.90
2017-09-03T05:41:57.196Z,99.90
2017-09-03T05:44:25.739Z,99.90
2017-09-03T05:46:54.314Z,99.90
2017-09-03T05:49:22.849Z,99.90
2017-09-03T05:51:51.313Z,99.90
2017-09-03T05:54:19.861Z,99.90
2017-09-03T05:56:48.427Z,99.90
2017-09-03T05:59:16.976Z,99.90
2017-09-03T06:01:45.699Z,99.90
2017-09-03T06:04:14.200Z,99.90
2017-09-03T06:06:42.759Z,99.90
2017-09-03T06:09:11.315Z,99.90
2017-09-03T06:11:39.833Z,99.90
2017-09-03T06:14:08.335Z,99.90
2017-09-03T06:16:36.812Z,99.90
2017-09-03T06:19:05.338Z,99.90
2017-09-03T06:21:33.865Z,99.90
2017-09-03T06:24:02.382Z,99.90
2017-09-03T06:26:30.933Z,99.90
2017-09-03T06:28:59.487Z,99.90
2017-09-03T06:31:27.998Z,99.90
2017-09-03T06:33:56.501Z,99.90
2017-09-03T06:36:25.039Z,99.90
2017-09-03T06:38:53.630Z,99.90
2017-09-03T06:41:22.175Z,99.90
2017-09-03T06:43:50.890Z,99.90
2017-09-03T06:46:19.656Z,99.90
2017-09-03T06:48:48.143Z,99.90
2017-09-03T06:51:16.687Z,99.90
2017-09-03T06:53:45.230Z,99.90
2017-09-03T06:56:13.756Z,99.90
2017-09-03T06:58:42.342Z,99.90
2017-09-03T07:01:10.885Z,99.90
2017-09-03T07:03:39.447Z,99.90
2017-09-03T07:06:08.040Z,99.90
2017-09-03T07:08:36.621Z,99.90
2017-09-03T07:11:05.116Z,99.90
2017-09-03T07:13:33.577Z,99.90
2017-09-03T07:16:02.096Z,99.90
2017-09-03T07:18:30.582Z,99.90
2017-09-03T07:20:59.051Z,99.90
2017-09-03T07:23:27.536Z,99.90
2017-09-03T07:25:56.046Z,99.90
2017-09-03T07:28:24.487Z,99.90
2017-09-03T07:30:53.717Z,99.90
2017-09-03T07:33:22.175Z,99.90
2017-09-03T07:35:50.614Z,99.90
2017-09-03T07:38:19.082Z,99.90
2017-09-03T07:40:47.515Z,99.90
2017-09-03T07:43:15.969Z,99.90
2017-09-03T07:45:44.237Z,99.90
2017-09-03T07:48:13.427Z,99.90
2017-09-03T07:50:41.865Z,99.90
2017-09-03T07:53:10.303Z,99.90
2017-09-03T07:55:38.748Z,99.90
2017-09-03T07:58:07.198Z,99.90
2017-09-03T08:00:35.621Z,99.90
2017-09-03T08:03:04.054Z,99.90
2017-09-03T08:05:32.537Z,99.90
2017-09-03T08:08:00.976Z,99.90
2017-09-03T08:10:29.420Z,99.90
2017-09-03T08:12:57.948Z,99.90
2017-09-03T08:15:26.379Z,99.90
2017-09-03T08:17:54.818Z,99.90
2017-09-03T08:20:23.335Z,99.90
2017-09-03T08:22:51.769Z,99.90
2017-09-03T08:25:20.220Z,99.90
2017-09-03T08:27:48.714Z,99.90
2017-09-03T08:30:17.171Z,99.90
2017-09-03T08:32:45.618Z,99.90
2017-09-03T08:35:13.966Z,99.90
2017-09-03T08:37:42.394Z,99.90
2017-09-03T08:40:10.816Z,99.10
2017-09-03T08:42:39.283Z,99.90
2017-09-03T08:45:07.745Z,99.80
2017-09-03T08:47:36.177Z,97.50
2017-09-03T08:50:04.648Z,93.40
2017-09-03T08:52:33.073Z,91.90
2017-09-03T08:55:01.524Z,96.20
2017-09-03T08:57:29.997Z,95.20
2017-09-03T08:59:58.430Z,93.40
2017-09-03T09:02:26.878Z,92.10
2017-09-03T09:04:55.343Z,83.40
2017-09-03T09:07:23.780Z,88.70
2017-09-03T09:09:52.985Z,78.30
2017-09-03T09:12:21.464Z,78.20
2017-09-03T09:14:49.895Z,69.60
2017-09-03T09:17:18.340Z,66.20
2017-09-03T09:19:46.616Z,66.10
2017-09-03T09:22:14.982Z,64.80
2017-09-03T09:24:43.234Z,71.60
2017-09-03T09:27:11.506Z,68.90
2017-09-03T09:29:40.639Z,64.50
2017-09-03T09:32:09.176Z,65.40
2017-09-03T09:34:37.592Z,67.10
2017-09-03T09:37:06.024Z,61.50
2017-09-03T09:39:34.467Z,65.90
2017-09-03T09:42:02.894Z,62.90
2017-09-03T09:44:31.353Z,64.90
2017-09-03T09:46:59.631Z,64.00
2017-09-03T09:49:27.887Z,65.10
2017-09-03T09:51:56.158Z,60.70
2017-09-03T09:54:24.436Z,60.30
2017-09-03T09:56:52.702Z,57.80
2017-09-03T09:59:20.993Z,56.90
2017-09-03T10:01:49.471Z,57.70
2017-09-03T10:04:17.906Z,58.50
2017-09-03T10:06:46.357Z,59.40
2017-09-03T10:09:14.824Z,57.00
2017-09-03T10:11:43.250Z,58.50
2017-09-03T10:14:11.672Z,60.60
2017-09-03T10:16:40.116Z,61.20
2017-09-03T10:19:08.517Z,61.10
2017-09-03T10:21:36.925Z,62.60
2017-09-03T10:24:05.157Z,61.00
2017-09-03T10:26:33.577Z,61.80
2017-09-03T10:29:02.017Z,60.60
2017-09-03T10:31:30.436Z,65.70
2017-09-03T10:33:58.890Z,63.90
2017-09-03T10:36:27.318Z,63.30
2017-09-03T10:38:55.782Z,62.00
2017-09-03T10:41:24.242Z,65.10
2017-09-03T10:43:52.674Z,61.40
2017-09-03T10:46:21.103Z,60.80
2017-09-03T10:48:49.609Z,59.20
2017-09-03T10:51:18.034Z,59.20
2017-09-03T10:53:46.274Z,58.90
2017-09-03T10:56:14.747Z,59.60
2017-09-03T10:58:43.160Z,55.80
2017-09-03T11:01:11.577Z,58.60
2017-09-03T11:03:40.046Z,57.60
2017-09-03T11:06:08.482Z,57.00
2017-09-03T11:08:36.914Z,61.00
2017-09-03T11:11:05.355Z,58.80
2017-09-03T11:13:33.794Z,58.80
2017-09-03T11:16:02.210Z,57.50
2017-09-03T11:18:30.652Z,61.00
2017-09-03T11:20:59.091Z,61.20
2017-09-03T11:23:27.498Z,62.70
2017-09-03T11:25:55.943Z,63.20
2017-09-03T11:28:24.341Z,62.40
2017-09-03T11:30:52.738Z,66.10
2017-09-03T11:33:21.181Z,63.90
2017-09-03T11:35:50.357Z,62.40
2017-09-03T11:38:18.771Z,62.40
2017-09-03T11:40:47.218Z,65.30
2017-09-03T11:43:15.625Z,59.70
2017-09-03T11:45:44.049Z,59.80
2017-09-03T11:48:12.281Z,62.00
2017-09-03T11:50:40.705Z,62.30
2017-09-03T11:53:09.119Z,65.60
2017-09-03T11:55:37.590Z,64.10
2017-09-03T11:58:05.993Z,63.90
2017-09-03T12:00:34.398Z,63.70
2017-09-03T12:03:02.867Z,62.60
2017-09-03T12:05:31.273Z,62.80
2017-09-03T12:07:59.689Z,65.30
2017-09-03T12:10:28.118Z,60.70
2017-09-03T12:12:56.549Z,63.50
2017-09-03T12:15:24.969Z,65.00
2017-09-03T12:17:53.456Z,64.30
2017-09-03T12:20:21.850Z,64.10
2017-09-03T12:22:50.281Z,63.50
2017-09-03T12:25:18.705Z,67.50
2017-09-03T12:27:47.114Z,74.80
2017-09-03T12:30:15.539Z,70.80
2017-09-03T12:32:43.977Z,71.90
2017-09-03T12:35:13.210Z,76.40
2017-09-03T12:37:41.617Z,76.40
2017-09-03T12:40:10.051Z,71.60
2017-09-03T12:42:38.478Z,75.80
2017-09-03T12:45:06.901Z,71.70
2017-09-03T12:47:34.999Z,71.00
2017-09-03T12:50:03.417Z,71.30
2017-09-03T12:52:31.654Z,75.90
2017-09-03T12:55:00.077Z,74.20
2017-09-03T12:57:28.493Z,74.80
2017-09-03T12:59:56.894Z,68.20
2017-09-03T13:02:26.082Z,67.30
2017-09-03T13:04:54.530Z,67.30
2017-09-03T13:07:22.962Z,66.90
2017-09-03T13:09:51.379Z,67.50
2017-09-03T13:12:19.862Z,66.80
2017-09-03T13:14:48.282Z,66.70
2017-09-03T13:17:16.702Z,64.30
2017-09-03T13:19:45.161Z,64.80
2017-09-03T13:22:13.597Z,63.00
2017-09-03T13:24:42.022Z,60.30
2017-09-03T13:27:10.496Z,57.70
2017-09-03T13:29:38.909Z,62.00
2017-09-03T13:32:07.304Z,63.70
2017-09-03T13:34:35.816Z,61.70
2017-09-03T13:37:04.323Z,59.30
2017-09-03T13:39:33.145Z,64.10
2017-09-03T13:42:01.693Z,61.40
2017-09-03T13:44:31.183Z,66.50
2017-09-03T13:46:59.627Z,66.50
2017-09-03T13:49:28.124Z,67.70
2017-09-03T13:51:56.884Z,62.40
2017-09-03T13:54:25.358Z,61.60
2017-09-03T13:56:53.915Z,61.70
2017-09-03T13:59:22.711Z,62.10
2017-09-03T14:01:51.497Z,61.90
2017-09-03T14:04:19.992Z,63.80
2017-09-03T14:06:49.261Z,62.70
2017-09-03T14:09:17.769Z,62.70
2017-09-03T14:11:46.284Z,62.50
2017-09-03T14:14:14.790Z,63.50
2017-09-03T14:16:43.334Z,61.90
2017-09-03T14:19:12.096Z,59.40
2017-09-03T14:21:40.604Z,62.40
2017-09-03T14:24:09.104Z,62.80
2017-09-03T14:26:37.622Z,61.40
2017-09-03T14:29:06.405Z,62.10
2017-09-03T14:31:34.970Z,62.60
2017-09-03T14:34:03.488Z,61.20
2017-09-03T14:36:31.961Z,60.30
2017-09-03T14:39:01.227Z,60.10
2017-09-03T14:41:29.730Z,57.70
2017-09-03T14:43:58.205Z,58.20
2017-09-03T14:46:26.934Z,58.80
2017-09-03T14:48:55.434Z,59.30
2017-09-03T14:51:23.950Z,59.00
2017-09-03T14:53:52.456Z,59.70
2017-09-03T14:56:20.950Z,60.30
2017-09-03T14:58:49.477Z,60.20
2017-09-03T15:01:17.989Z,61.60
2017-09-03T15:03:46.274Z,61.90
2017-09-03T15:06:14.757Z,63.30
2017-09-03T15:08:43.252Z,61.60
2017-09-03T15:11:11.703Z,63.50
2017-09-03T15:13:40.432Z,63.90
2017-09-03T15:16:09.202Z,61.80
2017-09-03T15:18:37.561Z,62.50
2017-09-03T15:21:06.095Z,65.70
2017-09-03T15:23:34.437Z,67.30
2017-09-03T15:26:02.939Z,63.30
2017-09-03T15:28:31.432Z,62.00
2017-09-03T15:30:59.918Z,62.00
2017-09-03T15:33:28.688Z,60.90
2017-09-03T15:35:57.200Z,62.40
2017-09-03T15:38:25.757Z,62.50
2017-09-03T15:40:54.213Z,66.30
2017-09-03T15:43:22.699Z,59.60
2017-09-03T15:45:51.272Z,60.00
2017-09-03T15:48:19.749Z,63.20
2017-09-03T15:50:48.465Z,63.40
2017-09-03T15:53:16.960Z,68.20
2017-09-03T15:55:45.372Z,64.70
2017-09-03T15:58:14.084Z,64.60
2017-09-03T16:00:42.575Z,72.00
2017-09-03T16:03:11.075Z,74.60
2017-09-03T16:05:39.606Z,72.40
2017-09-03T16:08:08.352Z,77.60
2017-09-03T16:10:36.836Z,78.10
2017-09-03T16:13:05.618Z,76.40
2017-09-03T16:15:34.094Z,78.90
2017-09-03T16:18:02.625Z,82.60
2017-09-03T16:20:31.152Z,81.90
2017-09-03T16:22:59.645Z,80.90
2017-09-03T16:25:28.140Z,80.60
2017-09-03T16:27:56.706Z,84.90
2017-09-03T16:30:25.218Z,83.80
2017-09-03T16:32:53.700Z,84.50
2017-09-03T16:35:22.273Z,86.40
2017-09-03T16:37:51.398Z,88.70
2017-09-03T16:40:19.926Z,88.00
2017-09-03T16:42:48.450Z,90.50
2017-09-03T16:45:17.168Z,90.60
2017-09-03T16:47:45.747Z,91.10
2017-09-03T16:50:14.129Z,91.80
2017-09-03T16:52:42.476Z,92.40
2017-09-03T16:55:10.788Z,93.00
2017-09-03T16:57:39.187Z,93.10
2017-09-03T17:00:07.711Z,93.80
2017-09-03T17:02:36.046Z,94.30
2017-09-03T17:05:04.381Z,93.40
2017-09-03T17:07:32.784Z,93.90
2017-09-03T17:10:01.117Z,95.30
2017-09-03T17:12:29.765Z,95.00
2017-09-03T17:14:58.081Z,95.60
2017-09-03T17:17:26.389Z,95.30
2017-09-03T17:19:56.233Z,97.10
2017-09-03T17:22:24.735Z,96.50
2017-09-03T17:24:53.236Z,96.10
2017-09-03T17:27:21.551Z,96.70
2017-09-03T17:29:49.886Z,96.90
2017-09-03T17:32:18.164Z,95.90
2017-09-03T17:34:51.172Z,93.90
2017-09-03T17:37:39.355Z,95.20
2017-09-03T17:40:07.701Z,96.90
2017-09-03T17:45:45.920Z,96.50
2017-09-03T17:48:14.204Z,97.60
2017-09-03T17:50:42.528Z,98.10
2017-09-03T17:53:10.869Z,99.30
2017-09-03T17:55:39.176Z,99.90
2017-09-03T17:58:07.542Z,98.50
2017-09-03T18:00:35.876Z,98.70
2017-09-03T18:03:09.883Z,98.60
2017-09-03T18:05:38.193Z,98.60
2017-09-03T18:08:06.523Z,98.50
2017-09-03T18:10:34.828Z,97.50
2017-09-03T18:13:03.146Z,97.40
2017-09-03T18:15:31.502Z,97.10
2017-09-03T18:17:59.858Z,97.30
2017-09-03T18:20:28.157Z,97.10
2017-09-03T18:22:56.688Z,97.50
2017-09-03T18:25:25.038Z,98.10
2017-09-03T18:27:53.382Z,98.80
2017-09-03T18:30:23.569Z,97.70
2017-09-03T18:32:51.968Z,98.40
2017-09-03T18:35:21.038Z,98.80
2017-09-03T18:37:52.856Z,98.40
2017-09-03T18:40:26.162Z,98.80
2017-09-03T18:43:00.142Z,99.10
2017-09-03T18:45:28.451Z,98.20
2017-09-03T18:47:56.770Z,98.00
2017-09-03T18:50:40.874Z,97.40
2017-09-03T18:53:09.962Z,96.80
2017-09-03T18:55:40.094Z,97.30
2017-09-03T18:58:12.938Z,97.90
2017-09-03T19:00:41.227Z,98.20
2017-09-03T19:03:10.317Z,97.40
2017-09-03T19:05:47.405Z,97.30
2017-09-03T19:08:15.680Z,98.00
2017-09-03T19:10:43.983Z,98.80
2017-09-03T19:13:12.317Z,98.60
2017-09-03T19:15:41.276Z,98.30
2017-09-03T19:18:09.807Z,98.80
2017-09-03T19:20:38.166Z,98.80
2017-09-03T19:23:06.484Z,99.10
2017-09-03T19:25:34.787Z,98.70
2017-09-03T19:28:03.121Z,98.80
2017-09-03T19:30:31.397Z,99.10
2017-09-03T19:32:59.714Z,99.50
2017-09-03T19:35:28.058Z,99.50
2017-09-03T19:37:57.182Z,99.90
2017-09-03T19:40:25.475Z,99.70
2017-09-03T19:42:54.041Z,99.50
2017-09-03T19:45:22.719Z,99.40
2017-09-03T19:47:51.179Z,99.10
2017-09-03T19:50:19.666Z,98.90
2017-09-03T19:52:48.130Z,98.60
2017-09-03T19:55:16.647Z,99.10
2017-09-03T19:57:45.148Z,99.30
2017-09-03T20:00:13.601Z,99.30
2017-09-03T20:02:42.095Z,99.90
2017-09-03T20:05:10.561Z,99.90
2017-09-03T20:07:39.085Z,99.90
2017-09-03T20:10:07.582Z,99.90
2017-09-03T20:12:36.134Z,99.90
2017-09-03T20:15:04.642Z,99.90
2017-09-03T20:17:33.090Z,99.90
2017-09-03T20:20:01.638Z,99.90
2017-09-03T20:22:30.141Z,99.90
2017-09-03T20:24:58.863Z,99.90
2017-09-03T20:27:27.391Z,99.90
2017-09-03T20:29:55.890Z,99.90
2017-09-03T20:32:24.434Z,99.90
2017-09-03T20:34:52.896Z,99.90
2017-09-03T20:37:21.363Z,99.90
2017-09-03T20:39:49.842Z,99.90
2017-09-03T20:42:18.362Z,99.90
2017-09-03T20:44:47.177Z,99.90
2017-09-03T20:47:15.922Z,99.90
2017-09-03T20:49:44.430Z,99.90
2017-09-03T20:52:13.198Z,99.90
2017-09-03T20:54:41.780Z,99.90
2017-09-03T20:57:10.499Z,99.90
2017-09-03T20:59:39.057Z,99.90
2017-09-03T21:02:07.648Z,99.90
2017-09-03T21:04:36.219Z,99.90
2017-09-03T21:07:04.834Z,99.90
2017-09-03T21:09:33.591Z,99.90
2017-09-03T21:12:02.333Z,99.90
2017-09-03T21:14:31.100Z,99.90
2017-09-03T21:16:59.842Z,99.90
2017-09-03T21:19:28.569Z,99.90
2017-09-03T21:21:57.382Z,99.90
2017-09-03T21:24:26.166Z,99.90
2017-09-03T21:26:54.874Z,99.90
2017-09-03T21:29:23.668Z,99.90
2017-09-03T21:31:52.378Z,99.90
2017-09-03T21:34:21.179Z,99.90
2017-09-03T21:36:49.906Z,99.90
2017-09-03T21:39:18.279Z,99.90
2017-09-03T21:41:47.094Z,99.90
2017-09-03T21:44:15.826Z,99.90
2017-09-03T21:46:44.560Z,99.90
2017-09-03T21:49:13.391Z,99.90
2017-09-03T21:51:42.099Z,99.90
2017-09-03T21:54:10.913Z,99.90
2017-09-03T21:56:39.671Z,99.90
2017-09-03T21:59:08.403Z,99.90
2017-09-03T22:01:37.229Z,99.90
2017-09-03T22:04:06.003Z,99.90
2017-09-03T22:06:34.779Z,99.90
2017-09-03T22:09:03.382Z,99.90
2017-09-03T22:11:32.891Z,99.90
2017-09-03T22:14:01.674Z,99.90
2017-09-03T22:16:30.414Z,99.90
2017-09-03T22:18:59.175Z,99.90
2017-09-03T22:21:27.984Z,99.90
2017-09-03T22:23:56.935Z,99.90
2017-09-03T22:26:25.691Z,99.90
2017-09-03T22:28:54.510Z,99.90
2017-09-03T22:31:23.999Z,99.90
2017-09-03T22:33:52.741Z,99.90
2017-09-03T22:36:21.529Z,99.90
2017-09-03T22:38:50.277Z,99.90
2017-09-03T22:41:19.025Z,99.90
2017-09-03T22:43:47.814Z,99.90
2017-09-03T22:46:16.539Z,99.90
2017-09-03T22:48:45.272Z,99.90
2017-09-03T22:51:13.685Z,99.90
2017-09-03T22:53:42.442Z,99.90
2017-09-03T22:56:11.188Z,99.90
2017-09-03T22:58:40.003Z,99.90
2017-09-03T23:01:09.522Z,99.90
2017-09-03T23:03:38.570Z,99.90
2017-09-03T23:06:07.384Z,99.90
2017-09-03T23:08:36.188Z,99.90
2017-09-03T23:11:04.922Z,99.90
2017-09-03T23:13:33.679Z,99.90
2017-09-03T23:16:02.449Z,99.90
2017-09-03T23:18:31.938Z,99.90
2017-09-03T23:21:00.719Z,99.90
2017-09-03T23:23:29.532Z,99.90
2017-09-03T23:25:58.291Z,99.90
2017-09-03T23:28:27.061Z,99.90
2017-09-03T23:30:55.856Z,99.90
2017-09-03T23:33:25.322Z,99.90
2017-09-03T23:35:54.030Z,99.90
2017-09-03T23:38:22.807Z,99.90
2017-09-03T23:40:51.514Z,99.90
2017-09-03T23:43:20.259Z,99.90
2017-09-03T23:45:48.989Z,99.90
2017-09-03T23:48:17.762Z,99.90
2017-09-03T23:50:46.478Z,99.90
2017-09-03T23:53:15.275Z,99.90
2017-09-03T23:55:44.020Z,99.90
2017-09-03T23:58:12.783Z,99.90
